CheckWX is a tool to help pilots better visualize weather data.  It is not intended as a substitute for an official pre-flight weather briefing.

15:09:51 UTC

KXNA METAR
Northwest Arkansas Regional Airport
Fayetteville/Springdale/Rogers, Arkansas, USA
Current

17 mins ago

KXNA 051453Z 00000KT 3SM BR OVC003 08/07 A3012 RMK AO2 SLP199 T00830072 51007
Observed
Apr-5 @ 14:53 UTC
Visibility
Flight Rules
LIFR
Conditions
Mist
Cloud Levels
  • Overcast at 300' AGL
Temperature
C / 46°F
Dewpoint
C / 45°F
Humidity
93%
Altimeter
30.12" Hg
Pressure
1020.02 hPa
Previous

1 hour ago

KXNA 051353Z 00000KT 4SM BR OVC002 08/07 A3011 RMK AO2 SLP196 T00830072
Observed
Apr-5 @ 13:53 UTC
Visibility
Flight Rules
LIFR
Conditions
Mist
Cloud Levels
  • Overcast at 200' AGL
Temperature
C / 46°F
Dewpoint
C / 45°F
Humidity
93%
Altimeter
30.11" Hg
Pressure
1019.62 hPa
Previous

2 hours ago

KXNA 051253Z 00000KT 1/2SM FG VV003 08/07 A3009 RMK AO2 SLP192 T00780067 RVRNO
Observed
Apr-5 @ 12:53 UTC
Visibility
Flight Rules
LIFR
Conditions
Fog
Cloud Levels
  • Vertical visibility
Temperature
C / 46°F
Dewpoint
C / 45°F
Humidity
93%
Altimeter
30.09" Hg
Pressure
1018.92 hPa